Time,TemperatureF,DewpointF,PressureIn,WindDirection,WindDirectionDegrees,WindSpeedMPH,WindSpeedGustMPH,Humidity,HourlyPrecipIn,Conditions,Clouds,dailyrainin,SoftwareType,DateUTC
2013-01-19 00:02:00,40.1,27.3,30.17,South,180,0.0,4.0,60,0.00,,,0.00,meteohub,2013-01-19 06:02:00,
2013-01-19 00:07:00,39.9,27.1,30.17,WNW,293,0.0,5.0,60,0.00,,,0.00,meteohub,2013-01-19 06:07:00,
2013-01-19 00:12:00,39.9,27.1,30.16,South,180,0.0,5.0,60,0.00,,,0.00,meteohub,2013-01-19 06:12:00,
2013-01-19 00:17:00,39.7,27.0,30.16,SSW,203,0.0,5.0,60,0.00,,,0.00,meteohub,2013-01-19 06:17:00,
2013-01-19 00:22:00,39.7,27.3,30.16,South,180,3.0,3.0,61,0.00,,,0.00,meteohub,2013-01-19 06:22:00,
2013-01-19 00:28:00,39.4,26.6,30.17,SW,225,3.0,3.0,60,0.00,,,0.00,meteohub,2013-01-19 06:28:00,
2013-01-19 00:33:00,39.2,27.0,30.17,SSE,158,0.0,3.0,61,0.00,,,0.00,meteohub,2013-01-19 06:33:00,
2013-01-19 00:38:00,39.2,27.0,30.17,SE,135,0.0,3.0,61,0.00,,,0.00,meteohub,2013-01-19 06:38:00,
2013-01-19 00:43:00,38.8,26.6,30.17,SSE,158,2.0,3.0,61,0.00,,,0.00,meteohub,2013-01-19 06:43:00,
2013-01-19 00:48:00,38.8,26.6,30.17,SE,135,0.0,2.0,61,0.00,,,0.00,meteohub,2013-01-19 06:48:00,
2013-01-19 00:53:00,39.0,27.1,30.15,SE,135,0.0,2.0,62,0.00,,,0.00,meteohub,2013-01-19 06:53:00,
2013-01-19 00:58:00,39.2,27.3,30.15,SE,135,0.0,2.0,62,0.00,,,0.00,meteohub,2013-01-19 06:58:00,
2013-01-19 01:03:00,39.4,27.5,30.15,SE,135,0.0,1.0,62,0.00,,,0.00,meteohub,2013-01-19 07:03:00,
2013-01-19 01:08:00,39.2,27.3,30.15,SE,135,0.0,1.0,62,0.00,,,0.00,meteohub,2013-01-19 07:08:00,
2013-01-19 01:13:00,39.2,27.0,30.15,SSE,158,0.0,1.0,61,0.00,,,0.00,meteohub,2013-01-19 07:13:00,
2013-01-19 01:18:00,39.2,27.3,30.15,SE,135,0.0,0.0,62,0.00,,,0.00,meteohub,2013-01-19 07:18:00,
2013-01-19 01:23:00,39.2,27.0,30.15,SSE,158,0.0,0.0,61,0.00,,,0.00,meteohub,2013-01-19 07:23:00,
2013-01-19 01:28:00,39.4,27.1,30.15,ESE,113,0.0,2.0,61,0.00,,,0.00,meteohub,2013-01-19 07:28:00,
2013-01-19 01:33:00,39.4,27.1,30.14,SSE,158,0.0,2.0,61,0.00,,,0.00,meteohub,2013-01-19 07:33:00,
2013-01-19 01:38:00,39.4,27.1,30.14,SSE,158,2.0,2.0,61,0.00,,,0.00,meteohub,2013-01-19 07:38:00,
2013-01-19 01:43:00,39.2,27.0,30.15,South,180,3.0,3.0,61,0.00,,,0.00,meteohub,2013-01-19 07:43:00,
2013-01-19 01:48:00,39.2,27.0,30.14,SSE,158,1.0,2.0,61,0.00,,,0.00,meteohub,2013-01-19 07:48:00,
2013-01-19 01:53:00,39.2,27.0,30.14,South,180,1.0,3.0,61,0.00,,,0.00,meteohub,2013-01-19 07:53:00,
2013-01-19 01:58:00,39.4,27.1,30.14,SE,135,0.0,4.0,61,0.00,,,0.00,meteohub,2013-01-19 07:58:00,
2013-01-19 02:03:00,39.2,27.0,30.14,SE,135,0.0,4.0,61,0.00,,,0.00,meteohub,2013-01-19 08:03:00,
2013-01-19 02:08:00,39.0,26.8,30.14,SE,135,1.0,1.0,61,0.00,,,0.00,meteohub,2013-01-19 08:08:00,
2013-01-19 02:13:00,39.0,26.8,30.14,SE,135,0.0,3.0,61,0.00,,,0.00,meteohub,2013-01-19 08:13:00,
2013-01-19 02:18:00,38.8,27.0,30.14,SSW,203,2.0,3.0,62,0.00,,,0.00,meteohub,2013-01-19 08:18:00,
2013-01-19 02:23:00,38.7,26.8,30.14,SE,135,0.0,2.0,62,0.00,,,0.00,meteohub,2013-01-19 08:23:00,
2013-01-19 02:28:00,38.7,26.8,30.14,South,180,2.0,2.0,62,0.00,,,0.00,meteohub,2013-01-19 08:28:00,
2013-01-19 02:33:00,38.5,26.6,30.14,South,180,3.0,3.0,62,0.00,,,0.00,meteohub,2013-01-19 08:33:00,
2013-01-19 02:38:00,38.7,26.8,30.14,South,180,2.0,3.0,62,0.00,,,0.00,meteohub,2013-01-19 08:38:00,
2013-01-19 02:43:00,38.5,26.6,30.14,SE,135,0.0,3.0,62,0.00,,,0.00,meteohub,2013-01-19 08:43:00,
2013-01-19 02:48:00,38.5,27.0,30.14,SE,135,0.0,3.0,63,0.00,,,0.00,meteohub,2013-01-19 08:48:00,
2013-01-19 02:53:00,38.5,27.0,30.14,South,180,0.0,4.0,63,0.00,,,0.00,meteohub,2013-01-19 08:53:00,
2013-01-19 02:58:00,38.7,27.1,30.14,SE,135,0.0,4.0,63,0.00,,,0.00,meteohub,2013-01-19 08:58:00,
2013-01-19 03:03:00,38.5,27.0,30.14,SSE,158,0.0,4.0,63,0.00,,,0.00,meteohub,2013-01-19 09:03:00,
2013-01-19 03:08:00,38.7,27.1,30.14,ESE,113,0.0,2.0,63,0.00,,,0.00,meteohub,2013-01-19 09:08:00,
2013-01-19 03:13:00,38.7,27.1,30.14,ESE,113,0.0,2.0,63,0.00,,,0.00,meteohub,2013-01-19 09:13:00,
2013-01-19 03:18:00,39.0,27.5,30.14,SSE,158,0.0,2.0,63,0.00,,,0.00,meteohub,2013-01-19 09:18:00,
2013-01-19 03:23:00,39.0,27.5,30.14,SE,135,0.0,2.0,63,0.00,,,0.00,meteohub,2013-01-19 09:23:00,
2013-01-19 03:28:00,38.7,27.1,30.12,SSE,158,0.0,0.0,63,0.00,,,0.00,meteohub,2013-01-19 09:28:00,
2013-01-19 03:33:00,38.7,27.1,30.12,SE,135,0.0,0.0,63,0.00,,,0.00,meteohub,2013-01-19 09:33:00,
2013-01-19 03:39:00,38.8,27.7,30.12,SE,135,0.0,0.0,64,0.00,,,0.00,meteohub,2013-01-19 09:39:00,
2013-01-19 03:44:00,39.0,27.9,30.12,SSE,158,3.0,3.0,64,0.00,,,0.00,meteohub,2013-01-19 09:44:00,
2013-01-19 03:49:00,39.0,27.9,30.11,SE,135,0.0,3.0,64,0.00,,,0.00,meteohub,2013-01-19 09:49:00,
2013-01-19 03:54:00,38.8,27.7,30.11,South,180,3.0,3.0,64,0.00,,,0.00,meteohub,2013-01-19 09:54:00,
2013-01-19 03:59:00,39.0,27.9,30.11,SW,225,4.0,4.0,64,0.00,,,0.00,meteohub,2013-01-19 09:59:00,
2013-01-19 04:04:00,39.2,28.0,30.11,SW,225,4.0,6.0,64,0.00,,,0.00,meteohub,2013-01-19 10:04:00,
2013-01-19 04:09:00,39.4,28.2,30.12,ESE,113,2.0,6.0,64,0.00,,,0.00,meteohub,2013-01-19 10:09:00,
2013-01-19 04:14:00,39.4,28.2,30.12,South,180,6.0,6.0,64,0.00,,,0.00,meteohub,2013-01-19 10:14:00,
2013-01-19 04:19:00,39.6,28.4,30.12,SW,225,7.0,7.0,64,0.00,,,0.00,meteohub,2013-01-19 10:19:00,
2013-01-19 04:24:00,39.7,28.6,30.12,SSE,158,6.0,7.0,64,0.00,,,0.00,meteohub,2013-01-19 10:24:00,
2013-01-19 04:29:00,39.9,28.8,30.11,SSE,158,4.0,7.0,64,0.00,,,0.00,meteohub,2013-01-19 10:29:00,
2013-01-19 04:34:00,40.1,29.3,30.11,SE,135,5.0,7.0,65,0.00,,,0.00,meteohub,2013-01-19 10:34:00,
2013-01-19 04:39:00,40.1,28.9,30.11,SW,225,5.0,6.0,64,0.00,,,0.00,meteohub,2013-01-19 10:39:00,
2013-01-19 04:44:00,40.5,29.3,30.11,SW,225,4.0,6.0,64,0.00,,,0.00,meteohub,2013-01-19 10:44:00,
2013-01-19 04:49:00,40.5,29.3,30.11,ESE,113,2.0,5.0,64,0.00,,,0.00,meteohub,2013-01-19 10:49:00,
2013-01-19 04:54:00,40.5,29.3,30.11,South,180,1.0,5.0,64,0.00,,,0.00,meteohub,2013-01-19 10:54:00,
2013-01-19 04:59:00,40.3,29.1,30.11,SSE,158,0.0,4.0,64,0.00,,,0.00,meteohub,2013-01-19 10:59:00,
2013-01-19 05:04:00,40.1,28.9,30.11,SE,135,0.0,4.0,64,0.00,,,0.00,meteohub,2013-01-19 11:04:00,
2013-01-19 05:09:00,40.1,28.9,30.10,SE,135,0.0,3.0,64,0.00,,,0.00,meteohub,2013-01-19 11:09:00,
2013-01-19 05:14:00,40.1,28.9,30.10,South,180,1.0,3.0,64,0.00,,,0.00,meteohub,2013-01-19 11:14:00,
2013-01-19 06:48:00,40.1,30.4,30.10,SSW,203,7.0,7.0,68,0.00,,,0.00,meteohub,2013-01-19 12:48:00,
2013-01-19 06:53:00,40.5,30.7,30.10,SSW,203,6.0,9.0,68,0.00,,,0.00,meteohub,2013-01-19 12:53:00,
2013-01-19 06:58:00,40.5,30.7,30.10,South,180,7.0,9.0,68,0.00,,,0.00,meteohub,2013-01-19 12:58:00,
2013-01-19 07:03:00,40.5,30.7,30.10,SW,225,4.0,9.0,68,0.00,,,0.00,meteohub,2013-01-19 13:03:00,
2013-01-19 07:08:00,40.6,30.9,30.09,SSW,203,4.0,7.0,68,0.00,,,0.00,meteohub,2013-01-19 13:08:00,
2013-01-19 07:13:00,40.5,30.7,30.10,South,180,5.0,7.0,68,0.00,,,0.00,meteohub,2013-01-19 13:13:00,
2013-01-19 07:18:00,40.6,30.9,30.09,SSW,203,6.0,7.0,68,0.00,,,0.00,meteohub,2013-01-19 13:18:00,
2013-01-19 07:23:00,40.6,30.9,30.09,SW,225,6.0,6.0,68,0.00,,,0.00,meteohub,2013-01-19 13:23:00,
2013-01-19 07:28:00,40.6,30.9,30.10,SSW,203,4.0,6.0,68,0.00,,,0.00,meteohub,2013-01-19 13:28:00,
2013-01-19 07:33:00,40.6,30.9,30.10,SSW,203,5.0,6.0,68,0.00,,,0.00,meteohub,2013-01-19 13:33:00,
2013-01-19 07:38:00,40.8,31.1,30.10,SSE,158,5.0,7.0,68,0.00,,,0.00,meteohub,2013-01-19 13:38:00,
2013-01-19 07:44:00,41.2,31.5,30.10,WSW,248,5.0,7.0,68,0.00,,,0.00,meteohub,2013-01-19 13:44:00,
2013-01-19 07:49:00,41.2,31.5,30.10,SSW,203,6.0,7.0,68,0.00,,,0.00,meteohub,2013-01-19 13:49:00,
2013-01-19 07:54:00,41.2,31.5,30.10,South,180,4.0,7.0,68,0.00,,,0.00,meteohub,2013-01-19 13:54:00,
2013-01-19 07:59:00,41.4,32.0,30.10,South,180,7.0,8.0,69,0.00,,,0.00,meteohub,2013-01-19 13:59:00,
2013-01-19 08:04:00,41.5,32.2,30.10,South,180,7.0,8.0,69,0.00,,,0.00,meteohub,2013-01-19 14:04:00,
2013-01-19 08:09:00,41.9,32.5,30.10,South,180,6.0,8.0,69,0.00,,,0.00,meteohub,2013-01-19 14:09:00,
2013-01-19 08:14:00,41.9,32.5,30.10,SW,225,7.0,7.0,69,0.00,,,0.00,meteohub,2013-01-19 14:14:00,
2013-01-19 08:19:00,42.3,32.9,30.10,SW,225,7.0,7.0,69,0.00,,,0.00,meteohub,2013-01-19 14:19:00,
2013-01-19 08:24:00,42.6,32.7,30.10,SW,225,8.0,9.0,68,0.00,,,0.00,meteohub,2013-01-19 14:24:00,
2013-01-19 08:29:00,42.8,32.9,30.10,SSE,158,7.0,9.0,68,0.00,,,0.00,meteohub,2013-01-19 14:29:00,
2013-01-19 08:34:00,43.3,33.4,30.10,SSW,203,6.0,9.0,68,0.00,,,0.00,meteohub,2013-01-19 14:34:00,
2013-01-19 08:39:00,44.1,34.2,30.09,SSW,203,5.0,9.0,68,0.00,,,0.00,meteohub,2013-01-19 14:39:00,
2013-01-19 08:44:00,44.8,34.5,30.09,SW,225,7.0,11.0,67,0.00,,,0.00,meteohub,2013-01-19 14:44:00,
2013-01-19 08:49:00,45.1,34.9,30.09,SW,225,7.0,11.0,67,0.00,,,0.00,meteohub,2013-01-19 14:49:00,
2013-01-19 08:54:00,46.4,35.6,30.09,West,270,16.0,16.0,66,0.00,,,0.00,meteohub,2013-01-19 14:54:00,
2013-01-19 08:59:00,47.3,36.1,30.09,SW,225,8.0,8.0,65,0.00,,,0.00,meteohub,2013-01-19 14:59:00,
2013-01-19 09:04:00,47.8,36.3,30.09,SSE,158,12.0,16.0,64,0.00,,,0.00,meteohub,2013-01-19 15:04:00,
2013-01-19 09:09:00,48.7,36.7,30.09,SW,225,15.0,16.0,63,0.00,,,0.00,meteohub,2013-01-19 15:09:00,
2013-01-19 09:14:00,49.1,36.7,30.08,SW,225,6.0,15.0,62,0.00,,,0.00,meteohub,2013-01-19 15:14:00,
2013-01-19 09:19:00,49.6,36.3,30.08,WSW,248,6.0,15.0,60,0.00,,,0.00,meteohub,2013-01-19 15:19:00,
2013-01-19 09:24:00,50.2,36.3,30.08,SSW,203,13.0,15.0,59,0.00,,,0.00,meteohub,2013-01-19 15:24:00,
2013-01-19 09:29:00,50.5,36.7,30.12,SW,225,10.0,11.0,59,0.00,,,0.00,meteohub,2013-01-19 15:29:00,
2013-01-19 09:34:00,50.9,36.1,30.12,SW,225,13.0,13.0,57,0.00,,,0.00,meteohub,2013-01-19 15:34:00,
2013-01-19 09:39:00,51.3,36.5,30.12,SW,225,6.0,13.0,57,0.00,,,0.00,meteohub,2013-01-19 15:39:00,
2013-01-19 09:44:00,52.0,36.9,30.11,SE,135,9.0,13.0,56,0.00,,,0.00,meteohub,2013-01-19 15:44:00,
2013-01-19 09:49:00,52.0,36.9,30.14,West,270,13.0,13.0,56,0.00,,,0.00,meteohub,2013-01-19 15:49:00,
2013-01-19 09:54:00,52.2,36.9,30.14,SW,225,12.0,13.0,56,0.00,,,0.00,meteohub,2013-01-19 15:54:00,
2013-01-19 09:59:00,52.3,36.7,30.14,South,180,11.0,13.0,55,0.00,,,0.00,meteohub,2013-01-19 15:59:00,
2013-01-19 10:04:00,52.7,37.0,30.14,SW,225,13.0,13.0,55,0.00,,,0.00,meteohub,2013-01-19 16:04:00,
2013-01-19 10:09:00,52.9,37.2,30.13,South,180,11.0,14.0,55,0.00,,,0.00,meteohub,2013-01-19 16:09:00,
2013-01-19 10:14:00,53.1,36.9,30.13,South,180,9.0,14.0,54,0.00,,,0.00,meteohub,2013-01-19 16:14:00,
2013-01-19 10:19:00,53.4,37.2,30.13,South,180,12.0,14.0,54,0.00,,,0.00,meteohub,2013-01-19 16:19:00,
2013-01-19 10:24:00,54.1,37.4,30.12,WNW,293,5.0,14.0,53,0.00,,,0.00,meteohub,2013-01-19 16:24:00,
2013-01-19 10:29:00,54.3,37.6,30.12,NW,315,10.0,14.0,53,0.00,,,0.00,meteohub,2013-01-19 16:29:00,
2013-01-19 10:34:00,54.9,38.1,30.12,WSW,248,7.0,12.0,53,0.00,,,0.00,meteohub,2013-01-19 16:34:00,
2013-01-19 10:39:00,55.0,37.8,30.12,SSE,158,5.0,13.0,52,0.00,,,0.00,meteohub,2013-01-19 16:39:00,
2013-01-19 10:44:00,55.8,37.9,30.12,WNW,293,11.0,13.0,51,0.00,,,0.00,meteohub,2013-01-19 16:44:00,
2013-01-19 10:49:00,55.9,37.6,30.11,SSE,158,7.0,14.0,50,0.00,,,0.00,meteohub,2013-01-19 16:49:00,
2013-01-19 10:54:00,56.3,37.9,30.11,West,270,6.0,14.0,50,0.00,,,0.00,meteohub,2013-01-19 16:54:00,
2013-01-19 10:59:00,56.3,37.4,30.11,WSW,248,15.0,15.0,49,0.00,,,0.00,meteohub,2013-01-19 16:59:00,
2013-01-19 11:04:00,56.5,38.1,30.11,SW,225,11.0,15.0,50,0.00,,,0.00,meteohub,2013-01-19 17:04:00,
2013-01-19 11:09:00,56.7,38.3,30.11,WSW,248,13.0,15.0,50,0.00,,,0.00,meteohub,2013-01-19 17:09:00,
2013-01-19 11:14:00,56.5,37.6,30.11,SW,225,11.0,22.0,49,0.00,,,0.00,meteohub,2013-01-19 17:14:00,
2013-01-19 11:20:00,56.5,37.6,30.11,SW,225,14.0,22.0,49,0.00,,,0.00,meteohub,2013-01-19 17:20:00,
2013-01-19 11:25:00,56.7,38.3,30.11,WSW,248,9.0,22.0,50,0.00,,,0.00,meteohub,2013-01-19 17:25:00,
2013-01-19 11:30:00,57.0,38.1,30.10,WSW,248,19.0,19.0,49,0.00,,,0.00,meteohub,2013-01-19 17:30:00,
2013-01-19 11:35:00,57.0,38.1,30.10,SW,225,14.0,15.0,49,0.00,,,0.00,meteohub,2013-01-19 17:35:00,
2013-01-19 11:40:00,57.2,37.8,30.10,SW,225,13.0,19.0,48,0.00,,,0.00,meteohub,2013-01-19 17:40:00,
2013-01-19 11:45:00,57.4,38.3,30.10,WSW,248,8.0,14.0,49,0.00,,,0.00,meteohub,2013-01-19 17:45:00,
2013-01-19 11:50:00,57.7,38.7,30.09,WSW,248,12.0,14.0,49,0.00,,,0.00,meteohub,2013-01-19 17:50:00,
2013-01-19 11:55:00,58.1,39.0,30.09,SW,225,11.0,14.0,49,0.00,,,0.00,meteohub,2013-01-19 17:55:00,
2013-01-19 12:00:00,58.5,38.8,30.09,WSW,248,8.0,16.0,48,0.00,,,0.00,meteohub,2013-01-19 18:00:00,
2013-01-19 12:05:00,58.8,39.2,30.09,SW,225,16.0,16.0,48,0.00,,,0.00,meteohub,2013-01-19 18:05:00,
2013-01-19 12:10:00,58.8,38.1,30.06,WSW,248,15.0,17.0,46,0.00,,,0.00,meteohub,2013-01-19 18:10:00,
2013-01-19 12:15:00,59.2,39.0,30.06,South,180,8.0,17.0,47,0.00,,,0.00,meteohub,2013-01-19 18:15:00,
2013-01-19 12:21:00,59.2,38.5,30.06,SE,135,13.0,15.0,46,0.00,,,0.00,meteohub,2013-01-19 18:21:00,
2013-01-19 12:27:00,59.0,38.3,30.06,WSW,248,14.0,15.0,46,0.00,,,0.00,meteohub,2013-01-19 18:27:00,
2013-01-19 12:32:00,59.2,38.5,30.06,SW,225,16.0,16.0,46,0.00,,,0.00,meteohub,2013-01-19 18:32:00,
2013-01-19 12:37:00,59.5,38.7,30.05,WSW,248,11.0,16.0,46,0.00,,,0.00,meteohub,2013-01-19 18:37:00,
2013-01-19 12:42:00,59.5,38.7,30.05,WSW,248,11.0,16.0,46,0.00,,,0.00,meteohub,2013-01-19 18:42:00,
2013-01-19 12:47:00,59.9,39.0,30.05,NW,315,15.0,16.0,46,0.00,,,0.00,meteohub,2013-01-19 18:47:00,
2013-01-19 12:52:00,59.9,39.0,30.05,WSW,248,15.0,15.0,46,0.00,,,0.00,meteohub,2013-01-19 18:52:00,
2013-01-19 12:57:00,60.1,38.7,30.05,East,90,19.0,19.0,45,0.00,,,0.00,meteohub,2013-01-19 18:57:00,
2013-01-19 13:02:00,60.1,38.7,30.05,SW,225,13.0,19.0,45,0.00,,,0.00,meteohub,2013-01-19 19:02:00,
2013-01-19 13:09:00,60.1,38.7,30.05,SW,225,10.0,19.0,45,0.00,,,0.00,meteohub,2013-01-19 19:09:00,
2013-01-19 13:14:00,60.3,38.8,30.05,SSE,158,13.0,19.0,45,0.00,,,0.00,meteohub,2013-01-19 19:14:00,
2013-01-19 13:19:00,60.6,39.2,30.05,WNW,293,10.0,13.0,45,0.00,,,0.00,meteohub,2013-01-19 19:19:00,
2013-01-19 13:24:00,60.4,39.6,30.05,South,180,9.0,13.0,46,0.00,,,0.00,meteohub,2013-01-19 19:24:00,
2013-01-19 13:29:00,60.6,38.7,30.04,South,180,9.0,16.0,44,0.00,,,0.00,meteohub,2013-01-19 19:29:00,
2013-01-19 13:34:00,61.0,38.8,30.04,SW,225,11.0,16.0,44,0.00,,,0.00,meteohub,2013-01-19 19:34:00,
2013-01-19 13:39:00,61.0,38.8,30.04,NW,315,7.0,16.0,44,0.00,,,0.00,meteohub,2013-01-19 19:39:00,
2013-01-19 13:44:00,61.3,39.2,30.04,South,180,14.0,17.0,44,0.00,,,0.00,meteohub,2013-01-19 19:44:00,
2013-01-19 13:49:00,61.5,39.4,30.03,SW,225,15.0,17.0,44,0.00,,,0.00,meteohub,2013-01-19 19:49:00,
2013-01-19 13:54:00,61.5,39.4,30.03,SSW,203,10.0,14.0,44,0.00,,,0.00,meteohub,2013-01-19 19:54:00,
2013-01-19 14:00:00,61.9,39.7,30.03,West,270,10.0,15.0,44,0.00,,,0.00,meteohub,2013-01-19 20:00:00,
2013-01-19 14:05:00,61.9,39.7,30.03,SW,225,9.0,15.0,44,0.00,,,0.00,meteohub,2013-01-19 20:05:00,
2013-01-19 14:10:00,61.9,39.7,30.04,WSW,248,13.0,17.0,44,0.00,,,0.00,meteohub,2013-01-19 20:10:00,
2013-01-19 14:15:00,62.2,40.1,30.04,SSW,203,10.0,17.0,44,0.00,,,0.00,meteohub,2013-01-19 20:15:00,
2013-01-19 14:21:00,62.4,39.6,30.04,SW,225,11.0,13.0,43,0.00,,,0.00,meteohub,2013-01-19 20:21:00,
2013-01-19 14:27:00,62.4,39.6,30.04,WSW,248,14.0,14.0,43,0.00,,,0.00,meteohub,2013-01-19 20:27:00,
2013-01-19 14:32:00,62.8,40.5,30.02,SW,225,14.0,14.0,44,0.00,,,0.00,meteohub,2013-01-19 20:32:00,
2013-01-19 14:37:00,62.6,39.7,30.02,WSW,248,11.0,14.0,43,0.00,,,0.00,meteohub,2013-01-19 20:37:00,
2013-01-19 14:42:00,62.6,39.7,30.02,SW,225,11.0,14.0,43,0.00,,,0.00,meteohub,2013-01-19 20:42:00,
2013-01-19 14:47:00,62.6,39.7,30.02,SW,225,11.0,14.0,43,0.00,,,0.00,meteohub,2013-01-19 20:47:00,
2013-01-19 14:57:00,62.4,39.0,30.02,WNW,293,5.0,13.0,42,0.00,,,0.00,meteohub,2013-01-19 20:57:00,
2013-01-19 15:03:00,62.6,39.2,30.02,SW,225,9.0,13.0,42,0.00,,,0.00,meteohub,2013-01-19 21:03:00,
2013-01-19 15:08:00,62.4,39.6,30.02,West,270,11.0,12.0,43,0.00,,,0.00,meteohub,2013-01-19 21:08:00,
2013-01-19 15:13:00,62.6,39.2,30.02,WSW,248,11.0,12.0,42,0.00,,,0.00,meteohub,2013-01-19 21:13:00,
2013-01-19 15:18:00,62.6,39.7,30.02,West,270,13.0,13.0,43,0.00,,,0.00,meteohub,2013-01-19 21:18:00,
2013-01-19 15:23:00,62.8,39.4,30.02,WSW,248,10.0,13.0,42,0.00,,,0.00,meteohub,2013-01-19 21:23:00,
2013-01-19 15:28:00,62.8,39.4,30.02,SSW,203,6.0,18.0,42,0.00,,,0.00,meteohub,2013-01-19 21:28:00,
2013-01-19 15:34:00,62.6,39.2,30.02,SW,225,10.0,18.0,42,0.00,,,0.00,meteohub,2013-01-19 21:34:00,
2013-01-19 15:39:00,62.4,39.0,30.02,WSW,248,9.0,12.0,42,0.00,,,0.00,meteohub,2013-01-19 21:39:00,
2013-01-19 15:44:00,62.4,39.6,30.02,SW,225,17.0,17.0,43,0.00,,,0.00,meteohub,2013-01-19 21:44:00,
2013-01-19 15:49:00,62.2,39.4,30.03,WSW,248,7.0,14.0,43,0.00,,,0.00,meteohub,2013-01-19 21:49:00,
2013-01-19 15:52:00,62.4,39.6,30.03,SW,225,6.0,17.0,43,0.00,,,0.00,meteohub,2013-01-19 21:52:00,
2013-01-19 15:57:00,62.2,39.4,30.03,SW,225,8.0,17.0,43,0.00,,,0.00,meteohub,2013-01-19 21:57:00,
2013-01-19 16:02:00,62.2,39.4,30.03,SW,225,6.0,10.0,43,0.00,,,0.00,meteohub,2013-01-19 22:02:00,
2013-01-19 16:08:00,62.4,39.6,30.03,SW,225,4.0,10.0,43,0.00,,,0.00,meteohub,2013-01-19 22:08:00,
2013-01-19 16:13:00,62.1,39.4,30.03,SSW,203,8.0,12.0,43,0.00,,,0.00,meteohub,2013-01-19 22:13:00,
2013-01-19 16:18:00,62.1,39.4,30.03,SW,225,13.0,13.0,43,0.00,,,0.00,meteohub,2013-01-19 22:18:00,
2013-01-19 16:24:00,61.7,39.0,30.03,SW,225,5.0,15.0,43,0.00,,,0.00,meteohub,2013-01-19 22:24:00,
2013-01-19 16:29:00,61.5,39.4,30.03,WNW,293,5.0,15.0,44,0.00,,,0.00,meteohub,2013-01-19 22:29:00,
2013-01-19 16:34:00,61.5,39.4,30.03,WSW,248,8.0,15.0,44,0.00,,,0.00,meteohub,2013-01-19 22:34:00,
2013-01-19 16:39:00,61.3,39.7,30.04,West,270,8.0,9.0,45,0.00,,,0.00,meteohub,2013-01-19 22:39:00,
2013-01-19 16:44:00,61.0,39.6,30.04,WSW,248,5.0,9.0,45,0.00,,,0.00,meteohub,2013-01-19 22:44:00,
2013-01-19 16:49:00,60.8,39.4,30.06,WSW,248,4.0,8.0,45,0.00,,,0.00,meteohub,2013-01-19 22:49:00,
2013-01-19 16:54:00,60.4,39.6,30.06,WSW,248,4.0,8.0,46,0.00,,,0.00,meteohub,2013-01-19 22:54:00,
2013-01-19 16:59:00,60.3,39.4,30.06,West,270,6.0,6.0,46,0.00,,,0.00,meteohub,2013-01-19 22:59:00,
2013-01-19 17:04:00,59.5,39.4,30.06,WSW,248,5.0,5.0,47,0.00,,,0.00,meteohub,2013-01-19 23:04:00,
2013-01-19 17:09:00,59.2,39.0,30.05,West,270,4.0,6.0,47,0.00,,,0.00,meteohub,2013-01-19 23:09:00,
2013-01-19 17:14:00,58.6,39.0,30.05,SW,225,4.0,6.0,48,0.00,,,0.00,meteohub,2013-01-19 23:14:00,
2013-01-19 17:19:00,58.5,38.8,30.05,WSW,248,4.0,5.0,48,0.00,,,0.00,meteohub,2013-01-19 23:19:00,
2013-01-19 17:24:00,57.7,38.7,30.05,West,270,2.0,5.0,49,0.00,,,0.00,meteohub,2013-01-19 23:24:00,
2013-01-19 17:30:00,57.2,38.3,30.04,WSW,248,2.0,5.0,49,0.00,,,0.00,meteohub,2013-01-19 23:30:00,
2013-01-19 17:35:00,56.5,38.1,30.04,SW,225,2.0,4.0,50,0.00,,,0.00,meteohub,2013-01-19 23:35:00,
2013-01-19 17:40:00,55.9,37.6,30.04,WSW,248,3.0,5.0,50,0.00,,,0.00,meteohub,2013-01-19 23:40:00,
2013-01-19 17:45:00,55.4,37.6,30.04,West,270,2.0,5.0,51,0.00,,,0.00,meteohub,2013-01-19 23:45:00,
2013-01-19 17:51:00,55.2,36.9,30.05,West,270,3.0,5.0,50,0.00,,,0.00,meteohub,2013-01-19 23:51:00,
2013-01-19 17:56:00,54.9,37.0,30.05,WSW,248,2.0,4.0,51,0.00,,,0.00,meteohub,2013-01-19 23:56:00,
2013-01-19 18:02:00,54.3,36.5,30.05,West,270,5.0,5.0,51,0.00,,,0.00,meteohub,2013-01-20 00:02:00,
2013-01-19 18:07:00,53.8,36.5,30.06,NW,315,2.0,5.0,52,0.00,,,0.00,meteohub,2013-01-20 00:07:00,
2013-01-19 18:12:00,53.6,36.3,30.07,NW,315,2.0,5.0,52,0.00,,,0.00,meteohub,2013-01-20 00:12:00,
2013-01-19 18:17:00,53.4,36.7,30.07,WSW,248,2.0,5.0,53,0.00,,,0.00,meteohub,2013-01-20 00:17:00,
2013-01-19 18:22:00,53.1,36.3,30.07,West,270,2.0,2.0,53,0.00,,,0.00,meteohub,2013-01-20 00:22:00,
2013-01-19 18:27:00,53.1,36.3,30.07,NNW,338,1.0,2.0,53,0.00,,,0.00,meteohub,2013-01-20 00:27:00,
2013-01-19 18:32:00,52.7,36.5,30.08,NW,315,1.0,4.0,54,0.00,,,0.00,meteohub,2013-01-20 00:32:00,
2013-01-19 18:37:00,52.3,36.1,30.08,NNE,23,0.0,4.0,54,0.00,,,0.00,meteohub,2013-01-20 00:37:00,
2013-01-19 18:43:00,52.2,36.5,30.08,NW,315,3.0,4.0,55,0.00,,,0.00,meteohub,2013-01-20 00:43:00,
2013-01-19 18:48:00,51.8,36.1,30.08,West,270,0.0,3.0,55,0.00,,,0.00,meteohub,2013-01-20 00:48:00,
2013-01-19 18:53:00,51.3,35.6,30.09,SW,225,0.0,3.0,55,0.00,,,0.00,meteohub,2013-01-20 00:53:00,
2013-01-19 18:58:00,50.4,34.9,30.09,SE,135,0.0,3.0,55,0.00,,,0.00,meteohub,2013-01-20 00:58:00,
2013-01-19 19:04:00,49.8,34.3,30.09,SE,135,0.0,2.0,55,0.00,,,0.00,meteohub,2013-01-20 01:04:00,
2013-01-19 19:09:00,49.1,34.2,30.11,SE,135,0.0,0.0,56,0.00,,,0.00,meteohub,2013-01-20 01:09:00,
2013-01-19 19:15:00,48.6,34.0,30.11,SE,135,0.0,0.0,57,0.00,,,0.00,meteohub,2013-01-20 01:15:00,
2013-01-19 19:20:00,47.7,33.6,30.11,WSW,248,0.0,1.0,58,0.00,,,0.00,meteohub,2013-01-20 01:20:00,
2013-01-19 19:25:00,46.9,32.9,30.12,WSW,248,0.0,1.0,58,0.00,,,0.00,meteohub,2013-01-20 01:25:00,
2013-01-19 19:31:00,46.4,32.9,30.12,WNW,293,0.0,1.0,59,0.00,,,0.00,meteohub,2013-01-20 01:31:00,
2013-01-19 19:36:00,46.2,33.1,30.12,North,0,0.0,0.0,60,0.00,,,0.00,meteohub,2013-01-20 01:36:00,
2013-01-19 19:41:00,45.5,32.9,30.12,ESE,113,0.0,0.0,61,0.00,,,0.00,meteohub,2013-01-20 01:41:00,
2013-01-19 19:46:00,45.1,32.5,30.12,ENE,68,0.0,0.0,61,0.00,,,0.00,meteohub,2013-01-20 01:46:00,
2013-01-19 19:51:00,45.0,32.7,30.13,ESE,113,0.0,0.0,62,0.00,,,0.00,meteohub,2013-01-20 01:51:00,
2013-01-19 19:57:00,44.4,32.2,30.14,ESE,113,0.0,0.0,62,0.00,,,0.00,meteohub,2013-01-20 01:57:00,
2013-01-19 20:02:00,44.2,32.4,30.14,ESE,113,0.0,0.0,63,0.00,,,0.00,meteohub,2013-01-20 02:02:00,
2013-01-19 20:08:00,44.1,32.7,30.14,ESE,113,0.0,0.0,64,0.00,,,0.00,meteohub,2013-01-20 02:08:00,
2013-01-19 20:13:00,43.9,32.5,30.14,ESE,113,0.0,0.0,64,0.00,,,0.00,meteohub,2013-01-20 02:13:00,
2013-01-19 20:18:00,43.5,32.2,30.14,SE,135,0.0,0.0,64,0.00,,,0.00,meteohub,2013-01-20 02:18:00,
2013-01-19 20:23:00,43.3,32.0,30.14,ESE,113,0.0,0.0,64,0.00,,,0.00,meteohub,2013-01-20 02:23:00,
2013-01-19 20:29:00,42.4,31.5,30.15,NE,45,0.0,0.0,65,0.00,,,0.00,meteohub,2013-01-20 02:29:00,
2013-01-19 20:34:00,41.7,30.7,30.15,ESE,113,0.0,0.0,65,0.00,,,0.00,meteohub,2013-01-20 02:34:00,
2013-01-19 20:39:00,41.5,31.1,30.15,ESE,113,0.0,0.0,66,0.00,,,0.00,meteohub,2013-01-20 02:39:00,
2013-01-19 20:44:00,41.0,30.6,30.15,ESE,113,0.0,0.0,66,0.00,,,0.00,meteohub,2013-01-20 02:44:00,
2013-01-19 20:50:00,40.8,30.4,30.16,ESE,113,0.0,0.0,66,0.00,,,0.00,meteohub,2013-01-20 02:50:00,
2013-01-19 20:55:00,39.9,29.8,30.16,ESE,113,0.0,0.0,67,0.00,,,0.00,meteohub,2013-01-20 02:55:00,
2013-01-19 21:00:00,39.7,29.7,30.16,ESE,113,0.0,0.0,67,0.00,,,0.00,meteohub,2013-01-20 03:00:00,
2013-01-19 21:05:00,39.2,29.1,30.16,ESE,113,0.0,0.0,67,0.00,,,0.00,meteohub,2013-01-20 03:05:00,
2013-01-19 21:10:00,38.8,29.1,30.15,ENE,68,0.0,0.0,68,0.00,,,0.00,meteohub,2013-01-20 03:10:00,
2013-01-19 21:15:00,38.5,28.8,30.15,East,90,0.0,0.0,68,0.00,,,0.00,meteohub,2013-01-20 03:15:00,
2013-01-19 21:20:00,37.9,28.8,30.16,East,90,0.0,0.0,69,0.00,,,0.00,meteohub,2013-01-20 03:20:00,
2013-01-19 21:25:00,37.8,28.6,30.16,NE,45,0.0,0.0,69,0.00,,,0.00,meteohub,2013-01-20 03:25:00,
2013-01-19 21:30:00,37.6,28.4,30.16,East,90,0.0,0.0,69,0.00,,,0.00,meteohub,2013-01-20 03:30:00,
2013-01-19 21:36:00,37.2,28.4,30.16,East,90,0.0,0.0,70,0.00,,,0.00,meteohub,2013-01-20 03:36:00,
2013-01-19 21:41:00,37.0,28.6,30.16,ESE,113,0.0,0.0,71,0.00,,,0.00,meteohub,2013-01-20 03:41:00,
2013-01-19 21:46:00,36.9,28.4,30.16,ESE,113,0.0,0.0,71,0.00,,,0.00,meteohub,2013-01-20 03:46:00,
2013-01-19 21:51:00,36.5,28.0,30.17,NE,45,0.0,0.0,71,0.00,,,0.00,meteohub,2013-01-20 03:51:00,
2013-01-19 21:56:00,36.3,27.9,30.17,ESE,113,0.0,0.0,71,0.00,,,0.00,meteohub,2013-01-20 03:56:00,
2013-01-19 22:01:00,36.3,28.2,30.17,NNE,23,0.0,0.0,72,0.00,,,0.00,meteohub,2013-01-20 04:01:00,
2013-01-19 22:06:00,36.1,28.0,30.17,East,90,0.0,0.0,72,0.00,,,0.00,meteohub,2013-01-20 04:06:00,
2013-01-19 22:12:00,36.1,28.0,30.17,ESE,113,0.0,0.0,72,0.00,,,0.00,meteohub,2013-01-20 04:12:00,
2013-01-19 22:17:00,36.1,28.4,30.17,ESE,113,0.0,0.0,73,0.00,,,0.00,meteohub,2013-01-20 04:17:00,
2013-01-19 22:22:00,36.0,28.2,30.17,SE,135,0.0,0.0,73,0.00,,,0.00,meteohub,2013-01-20 04:22:00,
2013-01-19 22:27:00,35.8,28.4,30.17,SE,135,0.0,0.0,74,0.00,,,0.00,meteohub,2013-01-20 04:27:00,
2013-01-19 22:32:00,35.6,28.2,30.18,SE,135,0.0,0.0,74,0.00,,,0.00,meteohub,2013-01-20 04:32:00,
2013-01-19 22:37:00,35.6,28.2,30.18,SE,135,0.0,0.0,74,0.00,,,0.00,meteohub,2013-01-20 04:37:00,
2013-01-19 22:42:00,35.4,28.0,30.18,SE,135,0.0,0.0,74,0.00,,,0.00,meteohub,2013-01-20 04:42:00,
2013-01-19 22:47:00,35.1,27.7,30.18,NNE,23,0.0,0.0,74,0.00,,,0.00,meteohub,2013-01-20 04:47:00,
2013-01-19 22:53:00,34.9,27.5,30.19,NNE,23,0.0,0.0,74,0.00,,,0.00,meteohub,2013-01-20 04:53:00,
2013-01-19 22:58:00,34.9,27.7,30.19,West,270,3.0,0.0,75,0.00,,,0.00,meteohub,2013-01-20 04:58:00,
2013-01-19 23:01:00,35.4,28.6,30.19,WNW,293,6.0,0.0,76,0.00,,,0.00,meteohub,2013-01-20 05:01:00,
2013-01-19 23:02:00,35.8,29.3,30.19,NW,315,3.0,3.0,77,0.00,,,0.00,meteohub,2013-01-20 05:02:00,
2013-01-19 23:03:00,36.1,29.7,30.18,NW,315,3.0,3.0,77,0.00,,,0.00,meteohub,2013-01-20 05:03:00,
2013-01-19 23:08:00,37.8,31.8,30.19,NNE,23,2.0,6.0,79,0.00,,,0.00,meteohub,2013-01-20 05:08:00,
2013-01-19 23:13:00,39.0,33.1,30.18,NNW,338,1.0,6.0,79,0.00,,,0.00,meteohub,2013-01-20 05:13:00,
2013-01-19 23:18:00,40.8,34.5,30.18,NNE,23,0.0,3.0,78,0.00,,,0.00,meteohub,2013-01-20 05:18:00,
2013-01-19 23:23:00,41.9,35.2,30.18,NW,315,2.0,2.0,77,0.00,,,0.00,meteohub,2013-01-20 05:23:00,
2013-01-19 23:28:00,42.6,35.6,30.19,NNE,23,2.0,4.0,76,0.00,,,0.00,meteohub,2013-01-20 05:28:00,
2013-01-19 23:34:00,42.8,35.8,30.19,NE,45,1.0,4.0,76,0.00,,,0.00,meteohub,2013-01-20 05:34:00,
2013-01-19 23:39:00,43.3,36.0,30.19,NNE,23,0.0,4.0,75,0.00,,,0.00,meteohub,2013-01-20 05:39:00,
2013-01-19 23:44:00,43.5,35.8,30.19,NNE,23,1.0,2.0,74,0.00,,,0.00,meteohub,2013-01-20 05:44:00,
2013-01-19 23:49:00,43.5,35.4,30.19,NNW,338,1.0,2.0,73,0.00,,,0.00,meteohub,2013-01-20 05:49:00,
2013-01-19 23:54:00,43.5,35.1,30.19,NNE,23,1.0,1.0,72,0.00,,,0.00,meteohub,2013-01-20 05:54:00,
2013-01-19 23:59:00,43.3,34.9,30.19,NNE,23,0.0,1.0,72,0.00,,,0.00,meteohub,2013-01-20 05:59:00,